Time;durP1;ratioP1;P1;durP2;ratioP2;P2;SDS_P1;SDS_P2;PMS_P1;PMS_P2;Temp;Humidity;BMP_temperature;BMP_pressure;BME280_temperature;BME280_humidity;BME280_pressure;Samples;Min_cycle;Max_cycle;Signal;HPM_P1;HPM_P2
2022/10/10 00:02:10;;;;;;;10.80;7.83;;;9.80;99.90;;;;;;5118129;28;20227;-90
2022/10/10 00:04:39;;;;;;;12.48;8.23;;;9.80;99.90;;;;;;5118712;28;20439;-90
2022/10/10 00:07:05;;;;;;;11.13;7.57;;;9.70;99.90;;;;;;5124537;28;20200;-91
2022/10/10 00:09:32;;;;;;;12.33;7.17;;;9.70;99.90;;;;;;5122882;28;20224;-90
2022/10/10 00:11:59;;;;;;;13.63;7.90;;;9.70;99.90;;;;;;5125227;28;20208;-92
2022/10/10 00:14:26;;;;;;;10.43;7.03;;;9.60;99.90;;;;;;5123413;28;20204;-90
2022/10/10 00:16:53;;;;;;;10.60;7.47;;;9.60;99.90;;;;;;5124835;28;20196;-91
2022/10/10 00:19:20;;;;;;;9.00;7.13;;;9.50;99.90;;;;;;5125015;28;20204;-93
2022/10/10 00:21:48;;;;;;;12.50;7.70;;;9.50;99.90;;;;;;5118915;28;20546;-89
2022/10/10 00:24:15;;;;;;;11.03;7.40;;;9.60;99.90;;;;;;5117174;28;20211;-89
2022/10/10 00:26:42;;;;;;;12.03;7.93;;;9.50;99.90;;;;;;5116655;28;20231;-89
2022/10/10 00:29:08;;;;;;;8.77;6.90;;;9.50;99.90;;;;;;5121374;28;20189;-90
2022/10/10 00:31:35;;;;;;;10.20;6.67;;;9.50;99.90;;;;;;5117929;28;20592;-91
2022/10/10 00:34:02;;;;;;;12.83;7.13;;;9.30;99.90;;;;;;5121363;28;20209;-89
2022/10/10 00:36:30;;;;;;;11.00;6.40;;;9.30;99.90;;;;;;5125235;28;20211;-93
2022/10/10 00:38:58;;;;;;;14.03;6.43;;;9.30;99.90;;;;;;5121939;28;20207;-92
2022/10/10 00:41:25;;;;;;;9.70;5.83;;;9.40;99.90;;;;;;5115767;28;20208;-92
2022/10/10 00:44:07;;;;;;;11.10;6.20;;;9.30;99.90;;;;;;5114170;28;20211;-90
2022/10/10 00:46:34;;;;;;;9.93;6.50;;;9.40;99.90;;;;;;5113651;28;20204;-93
2022/10/10 00:49:03;;;;;;;8.20;6.07;;;9.50;99.90;;;;;;5114106;28;20227;-89
2022/10/10 00:51:30;;;;;;;8.83;5.97;;;9.50;99.90;;;;;;5112932;28;20228;-89
2022/10/10 00:54:03;;;;;;;12.02;7.13;;;9.60;99.90;;;;;;5112034;28;20474;-90
2022/10/10 00:56:37;;;;;;;10.13;6.17;;;9.70;99.90;;;;;;5113933;28;20549;-89
2022/10/10 00:59:09;;;;;;;8.33;5.40;;;9.70;99.90;;;;;;5113571;28;20207;-90
2022/10/10 01:01:38;;;;;;;9.23;5.23;;;9.70;99.90;;;;;;5113928;28;20229;-91
2022/10/10 01:04:04;;;;;;;6.97;5.40;;;9.60;99.90;;;;;;5114070;28;20208;-89
2022/10/10 01:06:32;;;;;;;8.13;5.83;;;9.60;99.90;;;;;;5112910;28;20212;-90
2022/10/10 01:09:01;;;;;;;6.03;5.40;;;9.70;99.90;;;;;;5117142;28;20558;-91
2022/10/10 01:11:50;;;;;;;9.60;5.60;;;9.60;99.90;;;;;;5117848;28;20234;-90
2022/10/10 01:14:27;;;;;;;8.47;5.23;;;9.60;99.90;;;;;;5116513;28;20215;-90
2022/10/10 01:17:02;;;;;;;9.48;6.40;;;9.60;99.90;;;;;;5117147;28;20436;-89
2022/10/10 01:20:04;;;;;;;9.93;5.63;;;9.70;99.90;;;;;;5117867;28;20192;-89
2022/10/10 01:22:43;;;;;;;8.93;5.30;;;9.70;99.90;;;;;;5072715;28;20204;-89
2022/10/10 01:25:20;;;;;;;11.83;5.80;;;9.70;99.90;;;;;;5117305;28;20639;-90
2022/10/10 01:27:54;;;;;;;9.93;5.47;;;9.60;99.90;;;;;;5116656;28;20574;-90
2022/10/10 01:30:24;;;;;;;7.10;5.40;;;9.60;99.90;;;;;;5117092;28;20224;-89
2022/10/10 01:32:53;;;;;;;5.57;5.07;;;9.60;99.90;;;;;;5116718;28;20581;-89
2022/10/10 01:35:36;;;;;;;5.97;5.30;;;9.70;99.90;;;;;;5117198;28;20208;-90
2022/10/10 01:38:11;;;;;;;8.77;5.93;;;9.50;99.90;;;;;;5116814;28;20200;-91
2022/10/10 01:40:45;;;;;;;5.97;4.70;;;9.60;99.90;;;;;;5117025;28;20674;-89
2022/10/10 01:43:13;;;;;;;7.67;4.67;;;9.70;99.90;;;;;;5116895;28;20644;-90
2022/10/10 01:45:46;;;;;;;7.73;4.50;;;9.70;99.90;;;;;;5116949;28;20220;-90
2022/10/10 01:48:15;;;;;;;5.33;4.83;;;9.70;99.90;;;;;;5116624;28;20212;-90
2022/10/10 01:50:56;;;;;;;6.33;5.17;;;9.60;99.90;;;;;;5116980;28;20216;-89
2022/10/10 01:53:29;;;;;;;7.90;5.03;;;9.70;99.90;;;;;;5116717;28;20189;-89
2022/10/10 01:56:03;;;;;;;7.23;5.13;;;9.70;99.90;;;;;;5116751;28;20193;-89
2022/10/10 01:58:47;;;;;;;7.13;4.83;;;9.60;99.90;;;;;;5116311;28;20207;-89
2022/10/10 02:01:21;;;;;;;7.70;4.70;;;9.70;99.90;;;;;;5115797;28;20228;-90
2022/10/10 02:03:53;;;;;;;6.47;4.70;;;9.60;99.90;;;;;;5098883;28;20230;-90
2022/10/10 02:06:25;;;;;;;10.13;4.63;;;9.60;99.90;;;;;;5116406;28;20204;-90
2022/10/10 02:08:56;;;;;;;7.90;4.37;;;9.70;99.90;;;;;;5116526;28;20208;-90
2022/10/10 02:11:25;;;;;;;8.87;4.77;;;9.60;99.90;;;;;;5116152;28;20224;-89
2022/10/10 02:13:55;;;;;;;6.93;4.43;;;9.60;99.90;;;;;;5116194;27;20201;-90
2022/10/10 02:16:28;;;;;;;8.30;4.97;;;9.60;99.90;;;;;;5116826;28;20211;-90
2022/10/10 02:18:58;;;;;;;6.07;4.77;;;9.60;99.90;;;;;;5115780;28;20203;-90
2022/10/10 02:21:26;;;;;;;11.50;4.90;;;9.70;99.90;;;;;;5116420;28;20207;-90
2022/10/10 02:23:56;;;;;;;7.33;4.60;;;9.70;99.90;;;;;;5116051;28;20205;-89
2022/10/10 02:26:24;;;;;;;5.40;4.90;;;9.70;99.90;;;;;;5115137;28;20575;-90
2022/10/10 02:28:56;;;;;;;6.40;5.63;;;9.70;99.90;;;;;;5113064;28;20435;-90
2022/10/10 02:31:32;;;;;;;5.60;4.67;;;9.70;99.90;;;;;;5114015;28;20224;-90
2022/10/10 02:34:06;;;;;;;4.97;4.47;;;9.70;99.90;;;;;;5115997;28;20211;-90
2022/10/10 02:36:33;;;;;;;7.67;5.13;;;9.70;99.90;;;;;;5115670;28;20211;-90
2022/10/10 02:39:02;;;;;;;6.37;4.63;;;9.60;99.90;;;;;;5114357;28;20204;-90
2022/10/10 02:41:30;;;;;;;12.47;4.93;;;9.60;99.90;;;;;;5114765;28;20197;-90
2022/10/10 02:43:58;;;;;;;8.90;5.50;;;9.50;99.90;;;;;;5115689;28;20211;-89
2022/10/10 02:46:26;;;;;;;9.10;4.57;;;9.60;99.90;;;;;;5115706;28;20216;-89
2022/10/10 02:48:53;;;;;;;12.67;5.20;;;9.60;99.90;;;;;;5115826;28;20200;-89
2022/10/10 02:51:20;;;;;;;6.13;4.60;;;9.60;99.90;;;;;;5115633;28;20250;-91
2022/10/10 02:53:46;;;;;;;9.43;5.80;;;9.60;99.90;;;;;;5114743;28;20444;-90
2022/10/10 02:56:13;;;;;;;9.23;5.10;;;9.70;99.90;;;;;;5115391;28;20201;-90
2022/10/10 02:58:40;;;;;;;8.70;5.03;;;9.80;99.90;;;;;;5115043;28;20686;-90
2022/10/10 03:01:09;;;;;;;9.07;5.03;;;9.70;99.90;;;;;;5115799;28;20197;-90
2022/10/10 03:03:37;;;;;;;6.77;4.73;;;9.60;99.90;;;;;;5114143;28;20205;-89
2022/10/10 03:06:04;;;;;;;10.13;4.70;;;9.50;99.90;;;;;;5114191;28;20261;-90
2022/10/10 03:08:32;;;;;;;7.03;4.37;;;9.50;99.90;;;;;;5115914;28;20220;-90
2022/10/10 03:11:01;;;;;;;9.10;5.00;;;9.60;99.90;;;;;;5114872;28;20228;-91
2022/10/10 03:13:29;;;;;;;8.03;5.13;;;9.60;99.90;;;;;;5115572;28;20237;-89
2022/10/10 03:15:56;;;;;;;7.30;5.20;;;9.50;99.90;;;;;;5115410;28;20227;-90
2022/10/10 03:18:23;;;;;;;13.13;6.50;;;9.50;99.90;;;;;;5114343;28;20411;-91
2022/10/10 03:20:53;;;;;;;7.07;5.40;;;9.70;99.90;;;;;;5115204;27;20675;-90
2022/10/10 03:23:20;;;;;;;6.37;4.63;;;9.60;99.90;;;;;;5115715;28;20203;-90
2022/10/10 03:25:47;;;;;;;6.17;4.53;;;9.70;99.90;;;;;;5115452;28;20567;-90
2022/10/10 03:28:15;;;;;;;4.90;4.50;;;9.70;99.90;;;;;;5114802;28;20210;-91
2022/10/10 03:30:42;;;;;;;9.53;4.43;;;9.60;99.90;;;;;;5114311;28;20224;-91
2022/10/10 03:33:10;;;;;;;12.43;5.07;;;9.70;99.90;;;;;;5115298;28;20205;-91
2022/10/10 03:35:38;;;;;;;11.53;5.07;;;9.60;99.90;;;;;;5116343;28;20647;-91
2022/10/10 03:38:08;;;;;;;7.80;4.90;;;9.50;99.90;;;;;;5114554;28;20195;-90
2022/10/10 03:40:38;;;;;;;10.30;4.90;;;9.50;99.90;;;;;;5114925;28;20278;-91
2022/10/10 03:43:05;;;;;;;10.77;6.78;;;9.50;99.90;;;;;;5113964;28;20447;-89
2022/10/10 03:45:31;;;;;;;6.43;5.60;;;9.70;99.90;;;;;;5114761;28;20220;-91
2022/10/10 03:47:58;;;;;;;6.97;4.60;;;9.80;99.90;;;;;;5114666;28;20203;-90
2022/10/10 03:50:25;;;;;;;8.60;4.83;;;9.70;99.90;;;;;;5114819;28;20200;-90
2022/10/10 03:52:52;;;;;;;12.43;5.17;;;9.70;99.90;;;;;;5114362;28;20214;-91
2022/10/10 03:55:20;;;;;;;9.40;4.87;;;9.70;99.90;;;;;;5114787;28;20208;-90
2022/10/10 03:57:47;;;;;;;7.63;5.53;;;9.70;99.90;;;;;;5114508;28;20215;-90
2022/10/10 04:00:14;;;;;;;7.70;5.77;;;9.60;99.90;;;;;;5114725;28;20212;-92
2022/10/10 04:02:41;;;;;;;11.37;8.07;;;9.70;99.90;;;;;;5114468;28;20232;-89
2022/10/10 04:05:08;;;;;;;10.57;7.50;;;9.60;99.90;;;;;;5114893;28;20251;-91
2022/10/10 04:07:35;;;;;;;13.17;7.37;;;9.70;99.90;;;;;;5114252;28;20203;-89
2022/10/10 04:10:02;;;;;;;12.83;6.10;;;9.70;99.90;;;;;;5114368;28;20217;-90
2022/10/10 04:12:34;;;;;;;12.80;5.53;;;9.60;99.90;;;;;;5114391;28;20749;-90
2022/10/10 04:15:01;;;;;;;13.30;6.40;;;9.50;99.90;;;;;;5114517;28;20568;-90
2022/10/10 04:17:27;;;;;;;9.50;6.27;;;9.60;99.90;;;;;;5115344;28;20280;-90
2022/10/10 04:19:54;;;;;;;12.90;5.63;;;9.50;99.90;;;;;;5114145;28;20204;-92
2022/10/10 04:22:22;;;;;;;10.30;6.80;;;9.60;99.90;;;;;;5114058;28;20201;-89
2022/10/10 04:24:49;;;;;;;12.83;8.77;;;9.50;99.90;;;;;;5113902;28;20204;-89
2022/10/10 04:27:16;;;;;;;19.10;12.13;;;9.60;99.90;;;;;;5114366;28;20207;-90
2022/10/10 04:29:45;;;;;;;15.10;8.70;;;9.70;99.90;;;;;;5115347;28;20189;-90
2022/10/10 04:32:12;;;;;;;17.85;10.70;;;9.50;99.90;;;;;;5113777;28;20447;-90
2022/10/10 04:34:38;;;;;;;13.23;7.83;;;9.50;99.90;;;;;;5114386;28;20203;-90
2022/10/10 04:37:05;;;;;;;12.00;7.27;;;9.60;99.90;;;;;;5113969;28;20236;-91
2022/10/10 04:39:32;;;;;;;9.43;7.00;;;9.70;99.90;;;;;;5114073;28;20215;-90
2022/10/10 04:41:59;;;;;;;8.37;6.03;;;9.60;99.90;;;;;;5116267;28;20200;-90
2022/10/10 04:44:25;;;;;;;9.77;6.63;;;9.60;99.90;;;;;;5117702;28;20208;-89
2022/10/10 04:46:53;;;;;;;15.83;7.03;;;9.60;99.90;;;;;;5117809;28;20214;-91
2022/10/10 04:49:20;;;;;;;12.33;6.80;;;9.60;99.90;;;;;;5118085;27;20197;-92
2022/10/10 04:51:47;;;;;;;11.57;6.33;;;9.70;99.90;;;;;;5117197;28;20251;-94
2022/10/10 04:54:15;;;;;;;12.33;6.03;;;9.70;99.90;;;;;;5117985;28;20211;-90
2022/10/10 04:56:42;;;;;;;17.50;6.50;;;9.60;99.90;;;;;;5122240;28;20204;-90
2022/10/10 04:59:09;;;;;;;14.37;9.13;;;9.70;99.90;;;;;;5117909;28;20530;-90
2022/10/10 05:01:35;;;;;;;12.67;9.10;;;9.60;99.90;;;;;;5113101;28;20224;-90
2022/10/10 05:04:04;;;;;;;20.70;9.33;;;9.50;99.90;;;;;;5117577;28;20205;-89
2022/10/10 05:06:31;;;;;;;19.97;10.27;;;9.60;99.90;;;;;;5117768;28;20264;-89
2022/10/10 05:08:58;;;;;;;32.47;15.13;;;9.50;99.90;;;;;;5116883;28;20207;-89
2022/10/10 05:11:25;;;;;;;18.50;10.67;;;9.30;99.90;;;;;;5117381;28;20220;-89
2022/10/10 05:13:53;;;;;;;17.33;8.23;;;9.50;99.90;;;;;;5117558;28;20197;-90
2022/10/10 05:16:20;;;;;;;15.43;8.23;;;9.50;99.90;;;;;;5117374;27;20204;-89
2022/10/10 05:18:47;;;;;;;22.00;9.57;;;9.50;99.90;;;;;;5117540;27;20203;-89
2022/10/10 05:21:15;;;;;;;14.13;8.40;;;9.40;99.90;;;;;;5116179;28;20212;-89
2022/10/10 05:23:42;;;;;;;17.10;9.05;;;9.30;99.90;;;;;;5116886;28;20425;-89
2022/10/10 05:26:08;;;;;;;12.67;8.20;;;9.20;99.90;;;;;;5116654;28;20191;-91
2022/10/10 05:28:36;;;;;;;18.63;8.40;;;9.20;99.90;;;;;;5117196;27;20204;-88
2022/10/10 05:31:03;;;;;;;15.33;8.40;;;9.30;99.90;;;;;;5117342;27;20679;-88
2022/10/10 05:33:30;;;;;;;15.43;8.87;;;9.40;99.90;;;;;;5117157;28;20204;-90
2022/10/10 05:36:03;;;;;;;15.60;8.57;;;9.40;99.90;;;;;;5116590;27;20223;-89
2022/10/10 05:38:31;;;;;;;14.27;8.13;;;9.50;99.90;;;;;;5115823;28;20572;-89
2022/10/10 05:40:58;;;;;;;20.07;8.17;;;9.60;99.90;;;;;;5118271;28;20206;-89
2022/10/10 05:43:25;;;;;;;11.60;8.10;;;9.40;99.90;;;;;;5118566;27;20640;-88
2022/10/10 05:45:51;;;;;;;13.20;7.63;;;9.40;99.90;;;;;;5116153;27;20220;-87
2022/10/10 05:48:18;;;;;;;14.20;7.50;;;9.40;99.90;;;;;;5116340;28;20652;-86
2022/10/10 05:50:48;;;;;;;20.13;11.48;;;9.40;99.90;;;;;;5112555;28;20931;-86
2022/10/10 05:53:15;;;;;;;19.20;10.27;;;9.50;99.90;;;;;;5114389;28;20235;-86
2022/10/10 05:55:44;;;;;;;20.20;8.47;;;9.60;99.90;;;;;;5114881;28;20222;-89
2022/10/10 05:58:12;;;;;;;22.57;9.37;;;9.60;99.90;;;;;;5115300;28;20211;-87
2022/10/10 06:00:39;;;;;;;14.00;8.60;;;9.60;99.90;;;;;;5113333;28;20792;-85
2022/10/10 06:03:05;;;;;;;18.37;8.90;;;9.60;99.90;;;;;;5115085;28;20224;-87
2022/10/10 06:05:33;;;;;;;12.70;7.47;;;9.60;99.90;;;;;;5114268;28;20204;-86
2022/10/10 06:07:59;;;;;;;15.67;7.50;;;9.50;99.90;;;;;;5115392;28;20196;-87
2022/10/10 06:10:26;;;;;;;21.47;8.23;;;9.50;99.90;;;;;;5115891;28;20188;-87
2022/10/10 06:12:54;;;;;;;11.03;6.23;;;9.50;99.90;;;;;;5115304;28;20220;-87
2022/10/10 06:15:21;;;;;;;14.97;7.40;;;9.50;99.90;;;;;;5115699;28;20713;-89
2022/10/10 06:17:48;;;;;;;13.77;9.50;;;9.60;99.90;;;;;;5114478;28;20428;-88
2022/10/10 06:20:15;;;;;;;15.30;7.70;;;9.80;99.90;;;;;;5115160;28;20193;-87
2022/10/10 06:22:41;;;;;;;11.40;7.10;;;9.80;99.90;;;;;;5115623;28;20558;-87
2022/10/10 06:25:09;;;;;;;13.53;7.63;;;9.90;99.90;;;;;;5115769;28;20204;-86
2022/10/10 06:27:36;;;;;;;11.13;6.63;;;9.90;99.90;;;;;;5115291;28;20235;-85
2022/10/10 06:30:05;;;;;;;10.43;6.80;;;9.70;99.90;;;;;;5114851;27;20193;-85
2022/10/10 06:32:31;;;;;;;9.33;6.90;;;9.60;99.90;;;;;;5100215;28;20227;-85
2022/10/10 06:34:58;;;;;;;11.67;6.57;;;9.60;99.90;;;;;;5115467;28;20211;-85
2022/10/10 06:37:25;;;;;;;10.87;7.07;;;9.70;99.90;;;;;;5114769;28;20207;-86
2022/10/10 06:39:52;;;;;;;13.43;7.00;;;9.80;99.90;;;;;;5114861;28;20191;-85
2022/10/10 06:42:18;;;;;;;12.80;7.70;;;9.70;99.90;;;;;;5114892;28;20192;-86
2022/10/10 06:44:45;;;;;;;9.67;6.93;;;9.70;99.90;;;;;;5115915;28;20200;-87
2022/10/10 06:47:14;;;;;;;13.43;7.80;;;9.70;99.90;;;;;;5115185;28;20208;-90
2022/10/10 06:49:41;;;;;;;18.53;7.37;;;9.80;99.90;;;;;;5113168;28;20192;-86
2022/10/10 06:52:08;;;;;;;11.60;7.03;;;9.80;99.90;;;;;;5114722;28;20235;-89
2022/10/10 06:54:36;;;;;;;11.23;6.83;;;9.90;99.90;;;;;;5115228;28;20667;-89
2022/10/10 06:57:03;;;;;;;9.83;6.47;;;10.00;99.90;;;;;;5115251;28;20623;-89
2022/10/10 06:59:29;;;;;;;11.33;6.40;;;9.90;99.90;;;;;;5115376;28;20188;-90
2022/10/10 07:01:56;;;;;;;18.83;12.40;;;9.80;99.90;;;;;;5113685;28;20208;-88
2022/10/10 07:04:24;;;;;;;16.90;9.73;;;10.00;99.90;;;;;;5114042;28;20648;-90
2022/10/10 07:06:51;;;;;;;11.97;8.33;;;10.00;99.90;;;;;;5112534;28;20207;-89
2022/10/10 07:09:19;;;;;;;9.93;7.63;;;10.10;99.90;;;;;;5114542;28;20200;-87
2022/10/10 07:11:46;;;;;;;15.40;8.17;;;10.20;99.90;;;;;;5114971;28;20224;-88
2022/10/10 07:14:13;;;;;;;10.07;8.20;;;10.40;99.90;;;;;;5113722;28;20282;-85
2022/10/10 07:16:40;;;;;;;16.07;8.10;;;10.40;99.90;;;;;;5114243;28;20185;-88
2022/10/10 07:19:07;;;;;;;15.13;8.30;;;10.50;99.90;;;;;;5114800;28;20227;-89
2022/10/10 07:21:35;;;;;;;11.57;7.63;;;10.60;99.90;;;;;;5115273;28;20200;-87
2022/10/10 07:24:02;;;;;;;11.63;8.00;;;10.70;99.90;;;;;;5114771;28;20189;-88
2022/10/10 07:26:30;;;;;;;11.33;7.17;;;10.70;99.90;;;;;;5114948;28;20201;-90
2022/10/10 07:28:57;;;;;;;11.93;7.87;;;10.70;99.90;;;;;;5114617;28;20731;-89
2022/10/10 07:31:24;;;;;;;12.97;7.67;;;10.80;99.90;;;;;;5114694;28;20185;-87
2022/10/10 07:33:50;;;;;;;14.80;8.03;;;10.90;99.90;;;;;;5114426;28;20647;-87
2022/10/10 07:36:18;;;;;;;19.83;8.47;;;11.10;99.90;;;;;;5114446;28;20285;-88
2022/10/10 07:38:50;;;;;;;16.77;9.03;;;11.10;99.90;;;;;;5113924;28;20250;-89
2022/10/10 07:41:19;;;;;;;18.17;8.80;;;11.20;99.90;;;;;;5114474;28;20614;-89
2022/10/10 07:43:46;;;;;;;17.20;9.27;;;11.20;99.90;;;;;;5114294;28;20304;-88
2022/10/10 07:46:16;;;;;;;11.27;7.13;;;11.30;99.90;;;;;;5113891;28;20661;-88
2022/10/10 07:48:43;;;;;;;10.23;6.63;;;11.40;99.90;;;;;;5115728;28;20212;-88
2022/10/10 07:51:10;;;;;;;14.20;7.03;;;11.40;99.90;;;;;;5114831;28;20200;-89
2022/10/10 07:53:37;;;;;;;12.00;7.03;;;11.40;99.90;;;;;;5114004;28;20232;-86
2022/10/10 07:56:06;;;;;;;6.83;6.13;;;11.60;99.90;;;;;;5114028;28;20202;-86
2022/10/10 07:58:33;;;;;;;8.70;6.23;;;11.60;99.90;;;;;;5114594;28;20206;-86
2022/10/10 08:01:05;;;;;;;18.60;6.60;;;11.70;99.90;;;;;;5114187;28;20210;-87
2022/10/10 08:03:31;;;;;;;15.60;7.28;;;11.90;99.90;;;;;;5113409;28;20432;-87
2022/10/10 08:06:04;;;;;;;10.07;6.07;;;12.10;99.90;;;;;;5113892;28;20659;-88
2022/10/10 08:08:30;;;;;;;9.57;6.40;;;12.20;99.90;;;;;;5114539;28;20227;-87
2022/10/10 08:10:57;;;;;;;7.53;5.43;;;12.30;99.90;;;;;;5113814;28;20206;-87
2022/10/10 08:13:26;;;;;;;10.40;4.93;;;12.40;99.90;;;;;;5113704;28;20226;-88
2022/10/10 08:15:54;;;;;;;10.77;5.47;;;12.50;99.90;;;;;;5114351;28;20203;-84
2022/10/10 08:18:22;;;;;;;10.20;5.27;;;12.50;99.90;;;;;;5118859;28;20561;-87
2022/10/10 08:20:58;;;;;;;13.53;5.97;;;12.70;99.90;;;;;;5118306;28;20196;-87
2022/10/10 08:23:25;;;;;;;11.73;5.30;;;12.70;99.90;;;;;;5118331;28;20207;-86
2022/10/10 08:25:52;;;;;;;8.07;5.47;;;12.70;99.90;;;;;;5118781;28;20272;-88
2022/10/10 08:28:19;;;;;;;10.77;5.93;;;12.70;99.90;;;;;;5117994;28;20195;-86
2022/10/10 08:30:47;;;;;;;12.82;6.88;;;12.90;99.90;;;;;;5115940;28;20423;-86
2022/10/10 08:33:14;;;;;;;5.80;5.03;;;13.00;99.90;;;;;;5116837;28;20223;-87
2022/10/10 08:35:41;;;;;;;9.60;5.70;;;12.90;99.90;;;;;;5117081;28;20210;-86
2022/10/10 08:38:08;;;;;;;8.63;5.50;;;13.00;99.90;;;;;;5117153;28;20647;-85
2022/10/10 08:40:42;;;;;;;12.90;5.23;;;13.00;99.90;;;;;;5116958;28;20295;-88
2022/10/10 08:43:15;;;;;;;9.17;5.07;;;13.00;99.90;;;;;;5115312;28;20201;-87
2022/10/10 08:45:42;;;;;;;9.60;5.93;;;13.10;99.90;;;;;;5116154;28;20216;-87
2022/10/10 08:48:14;;;;;;;12.17;6.50;;;13.20;99.90;;;;;;5117054;28;20204;-87
2022/10/10 08:50:46;;;;;;;13.33;6.07;;;13.20;99.90;;;;;;5117132;28;20192;-87
2022/10/10 08:53:20;;;;;;;9.07;6.07;;;13.20;99.90;;;;;;5118320;27;20595;-87
2022/10/10 08:55:49;;;;;;;10.83;6.03;;;13.20;99.90;;;;;;5118303;27;20191;-87
2022/10/10 08:58:22;;;;;;;13.90;5.87;;;13.10;99.90;;;;;;5117541;28;20224;-90
2022/10/10 09:00:54;;;;;;;12.97;6.63;;;13.10;99.90;;;;;;5117598;28;20211;-87
2022/10/10 09:03:28;;;;;;;12.60;6.07;;;13.20;99.90;;;;;;5117077;28;20207;-86
2022/10/10 09:06:05;;;;;;;7.50;5.17;;;13.30;99.90;;;;;;5117867;28;20215;-89
2022/10/10 09:08:42;;;;;;;16.17;6.67;;;13.30;99.90;;;;;;5117525;28;20199;-87
2022/10/10 09:11:20;;;;;;;14.17;6.27;;;13.40;99.90;;;;;;5117151;28;20200;-90
2022/10/10 09:13:54;;;;;;;15.77;6.57;;;13.50;99.90;;;;;;5116987;28;20755;-86
2022/10/10 09:16:31;;;;;;;16.03;6.60;;;13.50;99.90;;;;;;5117248;28;20210;-88
2022/10/10 09:19:06;;;;;;;15.83;6.53;;;13.60;99.90;;;;;;5117147;28;20203;-87
2022/10/10 09:21:35;;;;;;;11.03;6.17;;;13.70;99.90;;;;;;5117048;28;20187;-87
2022/10/10 09:24:10;;;;;;;13.23;6.20;;;13.80;99.90;;;;;;5118400;28;20286;-87
2022/10/10 09:26:42;;;;;;;14.60;6.10;;;14.00;99.90;;;;;;5116940;28;20203;-88
2022/10/10 09:29:24;;;;;;;12.03;5.57;;;14.30;99.90;;;;;;5116248;28;20200;-88
2022/10/10 09:31:54;;;;;;;14.40;5.90;;;14.30;99.90;;;;;;5116991;28;20197;-88
2022/10/10 09:34:31;;;;;;;10.33;5.27;;;14.50;99.90;;;;;;5115666;28;20270;-88
2022/10/10 09:37:01;;;;;;;8.40;5.17;;;14.60;99.90;;;;;;5117353;28;20569;-88
2022/10/10 09:39:35;;;;;;;9.20;5.37;;;14.90;99.90;;;;;;5117569;28;20273;-87
2022/10/10 09:42:05;;;;;;;11.53;4.90;;;15.00;99.90;;;;;;5116274;28;20288;-86
2022/10/10 09:44:32;;;;;;;9.37;4.57;;;15.30;99.90;;;;;;5116510;28;20198;-85
2022/10/10 09:46:59;;;;;;;10.57;5.17;;;15.40;99.90;;;;;;5116692;28;20235;-84
2022/10/10 09:49:29;;;;;;;12.00;4.60;;;15.70;99.90;;;;;;5116464;28;20197;-87
2022/10/10 09:51:56;;;;;;;9.82;5.50;;;15.70;99.90;;;;;;5116028;28;20444;-86
2022/10/10 09:54:23;;;;;;;9.90;5.43;;;15.90;99.90;;;;;;5116213;28;20223;-86
2022/10/10 09:56:54;;;;;;;7.53;4.43;;;16.00;99.90;;;;;;5127761;28;20632;-85
2022/10/10 09:59:39;;;;;;;8.07;5.30;;;16.00;99.90;;;;;;5124751;28;20210;-86
2022/10/10 10:02:14;;;;;;;10.00;4.63;;;16.10;99.90;;;;;;5128766;28;20194;-86
2022/10/10 10:04:43;;;;;;;12.13;5.17;;;16.20;99.90;;;;;;5127770;28;20211;-85
2022/10/10 10:07:20;;;;;;;14.87;5.33;;;16.30;99.90;;;;;;5129038;28;20185;-85
2022/10/10 10:09:51;;;;;;;6.83;5.03;;;16.40;99.90;;;;;;5123691;28;20215;-85
2022/10/10 10:12:22;;;;;;;9.77;4.73;;;16.40;99.90;;;;;;5115833;28;20212;-85
2022/10/10 10:14:50;;;;;;;17.30;5.00;;;16.50;99.90;;;;;;5115693;28;20198;-85
2022/10/10 10:17:21;;;;;;;28.23;5.30;;;16.50;99.90;;;;;;5115606;28;20282;-85
2022/10/10 10:19:50;;;;;;;6.63;4.90;;;16.70;99.90;;;;;;5117480;28;20204;-85
2022/10/10 10:22:31;;;;;;;9.50;4.97;;;16.80;99.90;;;;;;5120490;28;20644;-86
2022/10/10 10:24:59;;;;;;;8.30;4.73;;;16.80;99.90;;;;;;5116588;28;20215;-86
2022/10/10 10:27:28;;;;;;;14.07;5.77;;;17.00;99.90;;;;;;5116487;28;20209;-85
2022/10/10 10:29:56;;;;;;;10.40;4.67;;;17.00;99.90;;;;;;5116644;28;20200;-85
2022/10/10 10:32:42;;;;;;;8.57;5.10;;;17.10;99.90;;;;;;5116390;28;20196;-85
2022/10/10 10:35:28;;;;;;;11.13;4.70;;;17.10;99.90;;;;;;5116092;28;20201;-84
2022/10/10 10:38:17;;;;;;;10.57;4.73;;;17.10;99.90;;;;;;5114935;28;20652;-89
2022/10/10 10:40:54;;;;;;;10.27;4.60;;;17.10;99.90;;;;;;5118324;28;20193;-88
2022/10/10 10:43:40;;;;;;;9.17;5.33;;;17.10;99.90;;;;;;5134206;28;20184;-87
2022/10/10 10:46:15;;;;;;;8.97;4.63;;;17.00;99.90;;;;;;5132887;28;20215;-87
2022/10/10 10:48:45;;;;;;;11.00;4.30;;;17.20;99.90;;;;;;5133860;28;20189;-86
2022/10/10 10:51:43;;;;;;;8.00;3.93;;;17.40;99.90;;;;;;5133791;28;20289;-86
2022/10/10 10:54:27;;;;;;;13.37;4.43;;;17.70;99.90;;;;;;5134962;28;20275;-87
2022/10/10 10:56:58;;;;;;;12.27;4.60;;;17.90;99.90;;;;;;5114172;28;20208;-86
2022/10/10 10:59:36;;;;;;;14.40;4.60;;;18.20;99.90;;;;;;5115249;28;20196;-86
2022/10/10 11:02:21;;;;;;;11.77;4.90;;;18.50;99.90;;;;;;5108205;28;20560;-85
2022/10/10 11:05:05;;;;;;;9.07;4.60;;;18.50;99.90;;;;;;5098565;28;20236;-85
2022/10/10 11:07:41;;;;;;;8.13;4.83;;;18.50;99.90;;;;;;5095071;28;20197;-85
2022/10/10 11:10:15;;;;;;;12.97;4.93;;;18.30;99.90;;;;;;5095354;28;20206;-86
2022/10/10 11:12:56;;;;;;;10.43;5.10;;;18.20;99.90;;;;;;5109570;28;20210;-87
2022/10/10 11:15:28;;;;;;;11.57;4.47;;;18.20;99.90;;;;;;5117001;28;20195;-87
2022/10/10 11:18:01;;;;;;;10.05;4.50;;;18.20;99.90;;;;;;5145964;27;20407;-87
2022/10/10 11:20:31;;;;;;;9.73;4.33;;;18.30;99.90;;;;;;5115242;28;20243;-87
2022/10/10 11:23:05;;;;;;;8.97;4.60;;;18.50;99.90;;;;;;5113438;28;20200;-84
2022/10/10 11:25:36;;;;;;;9.93;4.50;;;18.60;99.90;;;;;;5107905;28;20197;-86
2022/10/10 11:28:10;;;;;;;12.67;4.50;;;18.60;99.90;;;;;;5109542;28;20208;-84
2022/10/10 11:30:44;;;;;;;8.37;3.97;;;18.50;99.90;;;;;;5108531;28;20204;-83
2022/10/10 11:33:15;;;;;;;12.67;4.87;;;18.50;99.90;;;;;;5098209;28;20228;-84
2022/10/10 11:35:46;;;;;;;10.67;5.07;;;18.60;99.90;;;;;;5093560;28;20205;-80
2022/10/10 11:38:23;;;;;;;8.43;4.03;;;18.50;99.90;;;;;;5093719;28;20208;-82
2022/10/10 11:40:55;;;;;;;9.80;4.47;;;18.60;99.90;;;;;;5093644;28;20200;-83
2022/10/10 11:43:35;;;;;;;10.57;4.57;;;18.70;99.90;;;;;;5093940;28;20209;-82
2022/10/10 11:46:10;;;;;;;13.32;6.45;;;18.70;99.90;;;;;;5092666;28;20430;-83
2022/10/10 11:48:46;;;;;;;11.27;4.37;;;19.00;99.90;;;;;;5093591;28;20203;-82
2022/10/10 11:51:22;;;;;;;7.33;4.53;;;19.00;99.90;;;;;;5092934;28;20228;-84
2022/10/10 11:53:53;;;;;;;10.63;3.87;;;19.10;99.90;;;;;;5094191;28;20281;-83
2022/10/10 11:56:30;;;;;;;11.63;4.30;;;19.10;99.90;;;;;;5101134;28;20224;-84
2022/10/10 11:59:01;;;;;;;10.13;4.23;;;19.40;99.90;;;;;;5109937;28;20201;-82
2022/10/10 12:01:33;;;;;;;14.93;5.20;;;19.30;99.90;;;;;;5101607;28;20208;-83
2022/10/10 12:04:00;;;;;;;9.07;4.50;;;19.40;99.90;;;;;;5096424;28;20208;-87
2022/10/10 12:06:32;;;;;;;11.17;4.70;;;19.40;99.90;;;;;;5126798;28;20203;-85
2022/10/10 12:09:06;;;;;;;10.83;4.47;;;19.60;99.90;;;;;;5124595;28;20195;-85
2022/10/10 12:11:37;;;;;;;9.50;4.20;;;19.80;99.90;;;;;;5121228;28;20291;-87
2022/10/10 12:14:08;;;;;;;13.80;5.07;;;19.90;99.90;;;;;;5113584;28;20223;-86
2022/10/10 12:16:38;;;;;;;8.60;3.73;;;19.70;99.90;;;;;;5113834;28;20655;-84
2022/10/10 12:19:07;;;;;;;10.20;4.33;;;19.50;99.90;;;;;;5116849;28;20632;-85
2022/10/10 12:21:52;;;;;;;9.40;3.90;;;19.30;99.90;;;;;;5113496;27;20566;-88
2022/10/10 12:24:22;;;;;;;8.93;4.03;;;19.10;99.90;;;;;;5114376;28;20208;-88
2022/10/10 12:27:29;;;;;;;9.57;4.17;;;19.40;99.90;;;;;;5122603;28;20184;-88
2022/10/10 12:30:19;;;;;;;6.73;3.80;;;19.50;99.90;;;;;;5136256;28;20216;-85
2022/10/10 12:32:49;;;;;;;6.73;3.90;;;19.40;99.90;;;;;;5134711;28;20197;-85
2022/10/10 12:35:34;;;;;;;12.80;4.30;;;19.30;99.90;;;;;;5135118;28;20247;-84
2022/10/10 12:38:11;;;;;;;11.70;4.60;;;19.10;99.90;;;;;;5136325;28;20173;-87
2022/10/10 12:41:08;;;;;;;7.93;4.87;;;19.10;99.90;;;;;;5130235;28;20726;-84
2022/10/10 12:43:41;;;;;;;15.97;4.47;;;18.90;99.90;;;;;;5114205;27;20655;-87
2022/10/10 12:46:23;;;;;;;7.40;4.43;;;18.80;99.90;;;;;;5113982;28;20211;-88
2022/10/10 12:49:13;;;;;;;14.83;4.90;;;18.80;99.90;;;;;;5114452;28;20210;-87
2022/10/10 12:51:41;;;;;;;12.97;5.27;;;18.80;99.90;;;;;;5113840;28;20228;-86
2022/10/10 12:54:18;;;;;;;15.83;5.10;;;18.70;99.90;;;;;;5113888;28;20590;-87
2022/10/10 12:56:47;;;;;;;13.93;5.27;;;18.70;99.90;;;;;;5118955;28;20192;-85
2022/10/10 12:59:20;;;;;;;7.13;6.20;;;18.70;99.90;;;;;;5135141;28;20286;-84
2022/10/10 13:01:52;;;;;;;12.00;5.20;;;18.70;99.90;;;;;;5134503;28;20193;-85
2022/10/10 13:04:21;;;;;;;6.83;4.83;;;18.70;99.90;;;;;;5138459;28;20208;-88